KLPC/LPC METAR and TAF weather

Enter ICAO airport designator
Station Type Date Time Source
KLPC METAR 2021/09/24 01:56 UTC NOAA

KLPC 240156Z AUTO 27006KT 10SM BKN010 15/13 A2990 RMK AO2 SLP126 T01500128


Station Type Date Time Source
KLPC Decoded METAR 2021/09/24 01:56 UTC NOAA

Lompoc, Lompoc Airport, CA, United States (KLPC) 34-40N 120-28W
Sep 23, 2021 - 09:56 PM EDT / 2021.09.24 0156 UTC
Wind: from the W (270 degrees) at 7 MPH (6 KT):0
Visibility: 10 mile(s):0
Sky conditions: mostly cloudy
Temperature: 59.0 F (15.0 C)
Dew Point: 55.0 F (12.8 C)
Relative Humidity: 86%
Pressure (altimeter): 29.9 in. Hg (1012 hPa)
ob: KLPC 240156Z AUTO 27006KT 10SM BKN010 15/13 A2990 RMK AO2 SLP126 T01500128
cycle: 2

Station Type Date Time Source
KLPC TAF UTC NOAA

Error!

Example: see airport list